createdAt,value
2022-12-28T00:01:23.969Z,100656.28
2022-12-28T00:05:25.757Z,100647.97
2022-12-28T00:09:27.557Z,100648.78
2022-12-28T00:13:33.065Z,100663.00
2022-12-28T00:17:34.896Z,100649.91
2022-12-28T00:21:36.659Z,100649.66
2022-12-28T00:25:38.356Z,100652.72
2022-12-28T00:29:40.277Z,100638.13
2022-12-28T00:33:42.192Z,100637.81
2022-12-28T00:37:43.958Z,100636.97
2022-12-28T00:41:45.763Z,100633.81
2022-12-28T00:45:47.859Z,100628.66
2022-12-28T00:49:49.599Z,100625.94
2022-12-28T00:53:51.571Z,100624.81
2022-12-28T00:57:53.306Z,100612.56
2022-12-28T01:01:55.232Z,100617.03
2022-12-28T01:05:57.122Z,100610.38
2022-12-28T01:09:58.979Z,100616.75
2022-12-28T01:14:01.422Z,100605.91
2022-12-28T01:18:03.165Z,100601.84
2022-12-28T01:22:05.343Z,100592.81
2022-12-28T01:26:07.337Z,100618.31
2022-12-28T01:30:11.240Z,100599.91
2022-12-28T01:34:13.201Z,100603.69
2022-12-28T01:38:14.981Z,100591.09
2022-12-28T01:42:18.556Z,100592.31
2022-12-28T01:46:42.184Z,100578.75
2022-12-28T01:50:43.924Z,100589.25
2022-12-28T01:54:49.119Z,100586.03
2022-12-28T01:58:50.881Z,100581.50
2022-12-28T02:03:00.014Z,100570.97
2022-12-28T02:07:01.842Z,100571.34
2022-12-28T02:11:03.735Z,100563.94
2022-12-28T02:15:06.124Z,100556.03
2022-12-28T02:19:07.879Z,100535.50
2022-12-28T02:23:30.709Z,100532.72
2022-12-28T02:27:52.525Z,100523.06
2022-12-28T02:32:16.234Z,100520.06
2022-12-28T02:36:22.800Z,100514.94
2022-12-28T02:40:35.049Z,100505.84
2022-12-28T02:44:56.182Z,100501.28
2022-12-28T02:49:16.530Z,100497.59
2022-12-28T02:54:05.678Z,100487.28
2022-12-28T02:58:27.259Z,100471.13
2022-12-28T03:03:16.779Z,100461.47
2022-12-28T03:08:03.773Z,100457.38
2022-12-28T03:12:25.765Z,100450.63
2022-12-28T03:17:04.765Z,100444.97
2022-12-28T03:21:34.746Z,100437.44
2022-12-28T03:25:58.637Z,100419.03
2022-12-28T03:30:34.103Z,100403.97
2022-12-28T03:34:36.023Z,100403.16
2022-12-28T03:39:06.388Z,100396.66
2022-12-28T03:43:30.339Z,100385.84
2022-12-28T03:47:32.071Z,100374.88
2022-12-28T03:51:33.864Z,100379.03
2022-12-28T03:55:37.929Z,100356.81
2022-12-28T03:59:39.729Z,100365.75
2022-12-28T04:03:41.817Z,100350.91
2022-12-28T04:07:43.962Z,100336.50
2022-12-28T04:11:45.703Z,100339.91
2022-12-28T04:16:02.216Z,100325.03
2022-12-28T04:20:05.331Z,100308.75
2022-12-28T04:24:07.260Z,100296.22
2022-12-28T04:28:09.113Z,100283.94
2022-12-28T04:32:10.889Z,100286.06
2022-12-28T04:36:16.895Z,100280.50
2022-12-28T04:40:18.650Z,100281.66
2022-12-28T04:44:20.434Z,100272.97
2022-12-28T04:48:22.110Z,100274.56
2022-12-28T04:52:23.935Z,100277.41
2022-12-28T04:56:26.316Z,100268.88
2022-12-28T05:00:28.160Z,100275.38
2022-12-28T05:04:29.934Z,100260.53
2022-12-28T05:08:32.516Z,100250.88
2022-12-28T05:12:34.334Z,100272.19
2022-12-28T05:16:36.165Z,100266.66
2022-12-28T05:20:43.882Z,100250.41
2022-12-28T05:24:51.773Z,100253.41
2022-12-28T05:28:53.549Z,100243.22
2022-12-28T05:32:55.499Z,100225.31
2022-12-28T05:36:57.318Z,100235.13
2022-12-28T05:41:07.381Z,100236.25
2022-12-28T05:45:12.547Z,100211.41
2022-12-28T05:49:18.561Z,100222.81
2022-12-28T05:53:20.318Z,100222.72
2022-12-28T05:57:22.071Z,100224.78
2022-12-28T06:01:26.394Z,100225.75
2022-12-28T06:05:28.186Z,100222.63
2022-12-28T06:09:30.062Z,100233.41
2022-12-28T06:13:32.385Z,100217.78
2022-12-28T06:17:36.415Z,100209.00
2022-12-28T06:21:39.733Z,100201.47
2022-12-28T06:25:41.653Z,100178.56
2022-12-28T06:29:46.471Z,100192.66
2022-12-28T06:33:49.119Z,100180.72
2022-12-28T06:37:50.919Z,100181.44
2022-12-28T06:41:52.691Z,100181.78
2022-12-28T06:45:58.189Z,100169.69
2022-12-28T06:50:00.080Z,100173.97
2022-12-28T06:54:02.232Z,100157.75
2022-12-28T06:58:04.009Z,100168.69
2022-12-28T07:02:05.911Z,100164.41
2022-12-28T07:06:07.875Z,100161.66
2022-12-28T07:10:09.814Z,100160.44
2022-12-28T07:14:11.830Z,100150.06
2022-12-28T07:18:13.602Z,100157.91
2022-12-28T07:22:15.509Z,100124.78
2022-12-28T07:26:22.288Z,100128.41
2022-12-28T07:30:24.124Z,100107.66
2022-12-28T07:34:26.139Z,100114.53
2022-12-28T07:38:27.838Z,100099.88
2022-12-28T07:42:30.475Z,100114.44
2022-12-28T07:46:33.988Z,100093.75
2022-12-28T07:50:37.980Z,100093.28
2022-12-28T07:54:40.176Z,100092.13
2022-12-28T08:02:42.643Z,100088.19
2022-12-28T08:06:45.363Z,100085.94
2022-12-28T08:10:47.082Z,100085.00
2022-12-28T08:14:48.869Z,100081.44
2022-12-28T08:18:50.812Z,100083.56
2022-12-28T08:22:52.647Z,100069.81
2022-12-28T08:26:54.428Z,100071.94
2022-12-28T08:30:56.239Z,100065.28
2022-12-28T08:34:58.167Z,100061.09
2022-12-28T08:39:00.940Z,100039.09
2022-12-28T08:43:02.703Z,100039.91
2022-12-28T08:47:05.012Z,100034.34
2022-12-28T08:51:16.171Z,100036.94
2022-12-28T08:55:17.915Z,100021.78
2022-12-28T08:59:19.925Z,100027.09
2022-12-28T09:03:21.710Z,100029.13
2022-12-28T09:07:23.477Z,100022.16
2022-12-28T09:11:25.295Z,100018.34
2022-12-28T09:15:27.033Z,100007.38
2022-12-28T09:19:28.803Z,99996.81
2022-12-28T09:23:30.576Z,99994.13
2022-12-28T09:27:32.392Z,99983.84
2022-12-28T09:31:37.042Z,99981.00
2022-12-28T09:35:38.954Z,99983.63
2022-12-28T09:39:40.681Z,99983.19
2022-12-28T09:43:42.444Z,99970.03
2022-12-28T09:47:52.904Z,99964.50
2022-12-28T09:52:13.631Z,99968.50
2022-12-28T09:56:30.372Z,99955.72
2022-12-28T10:00:48.198Z,99962.72
2022-12-28T10:04:50.432Z,99941.38
2022-12-28T10:08:57.347Z,99933.81
2022-12-28T10:13:21.556Z,99935.72
2022-12-28T10:17:30.593Z,99916.38
2022-12-28T10:21:33.360Z,99916.66
2022-12-28T10:25:35.265Z,99921.19
2022-12-28T10:29:37.034Z,99911.59
2022-12-28T10:33:41.507Z,99904.94
2022-12-28T10:37:43.636Z,99899.38
2022-12-28T10:41:45.613Z,99895.25
2022-12-28T10:45:49.817Z,99882.69
2022-12-28T10:54:27.987Z,99851.03
2022-12-28T10:58:33.789Z,99879.22
2022-12-28T11:02:36.214Z,99864.66
2022-12-28T11:06:57.519Z,99855.72
2022-12-28T11:10:59.485Z,99865.38
2022-12-28T11:15:04.305Z,99842.47
2022-12-28T11:19:06.240Z,99847.31
2022-12-28T11:23:08.932Z,99832.84
2022-12-28T11:27:16.070Z,99825.78
2022-12-28T11:31:45.093Z,99829.34
2022-12-28T11:35:46.885Z,99832.59
2022-12-28T11:39:50.847Z,99828.53
2022-12-28T11:44:04.694Z,99819.28
2022-12-28T11:48:43.850Z,99802.56
2022-12-28T11:52:47.399Z,99809.06
2022-12-28T11:56:52.215Z,99803.50
2022-12-28T12:00:54.118Z,99813.22
2022-12-28T12:04:56.100Z,99813.75
2022-12-28T12:08:57.892Z,99801.72
2022-12-28T12:13:01.115Z,99800.75
2022-12-28T12:17:07.439Z,99782.78
2022-12-28T12:21:15.511Z,99799.09
2022-12-28T12:25:25.027Z,99789.75
2022-12-28T12:29:49.450Z,99797.25
2022-12-28T12:33:51.420Z,99785.16
2022-12-28T12:38:20.007Z,99795.91
2022-12-28T12:43:10.828Z,99792.59
2022-12-28T12:47:56.883Z,99777.47
2022-12-28T12:52:31.531Z,99758.50
2022-12-28T12:56:52.064Z,99777.81
2022-12-28T13:01:38.304Z,99786.13
2022-12-28T13:05:42.929Z,99787.38
2022-12-28T13:09:44.836Z,99780.59
2022-12-28T13:13:49.414Z,99783.34
2022-12-28T13:18:44.113Z,99773.03
2022-12-28T13:22:31.138Z,99787.16
2022-12-28T13:26:35.524Z,99787.09
2022-12-28T13:30:37.513Z,99766.78
2022-12-28T13:34:41.853Z,99762.72
2022-12-28T13:38:43.696Z,99780.75
2022-12-28T13:43:17.545Z,99762.81
2022-12-28T13:47:29.925Z,99776.41
2022-12-28T13:51:32.398Z,99780.22
2022-12-28T13:55:55.597Z,99782.31
2022-12-28T13:59:57.343Z,99760.44
2022-12-28T14:04:42.442Z,99767.88
2022-12-28T14:08:29.120Z,99776.50
2022-12-28T14:12:31.137Z,99776.56
2022-12-28T14:16:36.044Z,99763.72
2022-12-28T14:20:52.415Z,99780.59
2022-12-28T14:25:10.735Z,99779.75
2022-12-28T14:29:18.843Z,99779.47
2022-12-28T14:33:26.817Z,99765.69
2022-12-28T14:37:35.564Z,99766.91
2022-12-28T14:41:41.222Z,99774.69
2022-12-28T14:46:07.692Z,99770.19
2022-12-28T14:50:29.517Z,99767.00
2022-12-28T14:54:31.384Z,99763.44
2022-12-28T14:59:03.601Z,99775.16
2022-12-28T15:03:22.005Z,99772.81
2022-12-28T15:07:23.756Z,99775.50
2022-12-28T15:11:27.810Z,99783.44
2022-12-28T15:15:29.557Z,99759.47
2022-12-28T15:19:31.340Z,99771.47
2022-12-28T15:23:33.102Z,99764.25
2022-12-28T15:27:35.515Z,99761.34
2022-12-28T15:31:37.332Z,99766.63
2022-12-28T15:35:39.331Z,99750.00
2022-12-28T15:39:41.164Z,99766.03
2022-12-28T15:43:42.989Z,99755.59
2022-12-28T15:47:45.130Z,99765.00
2022-12-28T15:51:49.099Z,99751.56
2022-12-28T15:56:03.045Z,99753.88
2022-12-28T16:00:06.153Z,99758.50
2022-12-28T16:04:07.891Z,99751.78
2022-12-28T16:08:09.683Z,99741.19
2022-12-28T16:12:17.048Z,99751.84
2022-12-28T16:16:19.118Z,99747.75
2022-12-28T16:20:21.074Z,99751.88
2022-12-28T16:24:22.861Z,99744.84
2022-12-28T16:28:25.721Z,99760.31
2022-12-28T16:32:28.368Z,99728.41
2022-12-28T16:36:31.353Z,99737.00
2022-12-28T16:40:34.657Z,99728.34
2022-12-28T16:44:37.191Z,99733.44
2022-12-28T16:48:39.911Z,99731.03
2022-12-28T16:52:41.800Z,99736.41
2022-12-28T16:56:45.207Z,99715.88
2022-12-28T17:00:47.230Z,99726.41
2022-12-28T17:04:49.144Z,99719.34
2022-12-28T17:08:50.891Z,99722.63
2022-12-28T17:12:52.662Z,99723.78
2022-12-28T17:16:54.469Z,99719.81
2022-12-28T17:21:00.483Z,99721.25
2022-12-28T17:25:05.513Z,99726.63
2022-12-28T17:29:07.265Z,99711.09
2022-12-28T17:33:10.688Z,99714.22
2022-12-28T17:37:12.574Z,99712.78
2022-12-28T17:41:17.926Z,99700.22
2022-12-28T17:45:19.735Z,99703.22
2022-12-28T17:49:21.602Z,99703.84
2022-12-28T17:53:26.634Z,99699.13
2022-12-28T17:57:28.367Z,99706.47
2022-12-28T18:01:30.346Z,99686.56
2022-12-28T18:05:32.371Z,99695.59
2022-12-28T18:09:34.402Z,99695.84
2022-12-28T18:13:36.167Z,99685.03
2022-12-28T18:17:38.081Z,99665.47
2022-12-28T18:21:41.209Z,99686.84
2022-12-28T18:25:47.357Z,99672.53
2022-12-28T18:29:49.142Z,99681.88
2022-12-28T18:33:51.062Z,99694.78
2022-12-28T18:37:52.827Z,99675.63
2022-12-28T18:41:54.829Z,99685.09
2022-12-28T18:46:01.522Z,99694.13
2022-12-28T18:50:04.010Z,99679.19
2022-12-28T18:54:05.988Z,99691.56
2022-12-28T18:58:07.749Z,99695.06
2022-12-28T19:02:17.466Z,99700.59
2022-12-28T19:06:21.135Z,99680.44
2022-12-28T19:10:24.383Z,99682.78
2022-12-28T19:14:26.345Z,99666.28
2022-12-28T19:18:28.079Z,99651.97
2022-12-28T19:22:30.049Z,99641.22
2022-12-28T19:26:32.980Z,99632.44
2022-12-28T19:30:34.806Z,99623.66
2022-12-28T19:34:36.613Z,99612.81
2022-12-28T19:38:38.527Z,99620.66
2022-12-28T19:42:40.263Z,99617.00
2022-12-28T19:46:42.074Z,99614.47
2022-12-28T19:50:47.114Z,99617.63
2022-12-28T19:54:49.288Z,99605.78
2022-12-28T19:58:51.121Z,99605.00
2022-12-28T20:02:53.231Z,99599.69
2022-12-28T20:06:56.357Z,99592.09
2022-12-28T20:10:58.269Z,99588.31
2022-12-28T20:15:00.107Z,99583.97
2022-12-28T20:19:02.061Z,99585.63
2022-12-28T20:23:03.871Z,99601.28
2022-12-28T20:27:05.660Z,99589.88
2022-12-28T20:31:08.914Z,99567.28
2022-12-28T20:35:10.850Z,99570.41
2022-12-28T20:39:12.704Z,99561.25
2022-12-28T20:43:23.512Z,99565.63
2022-12-28T20:47:25.829Z,99567.56
2022-12-28T20:51:27.735Z,99567.50
2022-12-28T20:55:29.479Z,99568.75
2022-12-28T20:59:31.226Z,99576.88
2022-12-28T21:03:54.280Z,99563.00
2022-12-28T21:08:01.978Z,99541.28
2022-12-28T21:12:16.574Z,99552.78
2022-12-28T21:16:24.218Z,99546.34
2022-12-28T21:20:32.733Z,99547.06
2022-12-28T21:24:38.892Z,99523.09
2022-12-28T21:28:40.814Z,99513.84
2022-12-28T21:32:42.804Z,99496.81
2022-12-28T21:36:44.673Z,99490.13
2022-12-28T21:41:17.273Z,99483.28
2022-12-28T21:45:19.071Z,99482.72
2022-12-28T21:49:21.011Z,99480.34
2022-12-28T21:53:22.762Z,99477.31
2022-12-28T21:57:27.549Z,99471.34
2022-12-28T22:01:47.807Z,99457.81
2022-12-28T22:06:04.952Z,99446.97
2022-12-28T22:10:25.680Z,99440.47
2022-12-28T22:14:27.445Z,99428.97
2022-12-28T22:19:00.359Z,99441.38
2022-12-28T22:22:50.960Z,99421.47
2022-12-28T22:26:54.892Z,99414.31
2022-12-28T22:30:56.659Z,99403.53
2022-12-28T22:35:03.360Z,99394.09
2022-12-28T22:39:05.114Z,99385.66
2022-12-28T22:43:06.926Z,99385.66
2022-12-28T22:47:08.762Z,99376.91
2022-12-28T22:51:12.898Z,99386.69
2022-12-28T22:55:14.709Z,99357.41
2022-12-28T22:59:16.460Z,99370.16
2022-12-28T23:03:18.260Z,99372.34
2022-12-28T23:07:20.036Z,99367.75
2022-12-28T23:11:36.771Z,99338.88
2022-12-28T23:15:38.576Z,99325.00
2022-12-28T23:20:00.151Z,99329.13
2022-12-28T23:24:21.776Z,99319.78
2022-12-28T23:28:23.511Z,99319.13
2022-12-28T23:32:25.220Z,99311.66
2022-12-28T23:36:26.998Z,99326.72
2022-12-28T23:40:28.796Z,99315.56
2022-12-28T23:44:30.703Z,99317.72
2022-12-28T23:48:32.438Z,99307.13
2022-12-28T23:52:34.256Z,99293.38
2022-12-28T23:56:36.208Z,99299.28
